Time;durP1;ratioP1;P1;durP2;ratioP2;P2;SDS_P1;SDS_P2;PMS_P1;PMS_P2;Temp;Humidity;BMP_temperature;BMP_pressure;BME280_temperature;BME280_humidity;BME280_pressure;Samples;Min_cycle;Max_cycle;Signal;HPM_P1;HPM_P2
2021/12/26 00:02:09;;;;;;;32.28;19.48;;;;;;;;;;5096311;28;20093;-80
2021/12/26 00:04:35;;;;;;;40.30;24.50;;;;;;;;;;5095778;28;20082;-79
2021/12/26 00:07:02;;;;;;;47.60;27.52;;;;;;;;;;5096432;28;20431;-79
2021/12/26 00:09:28;;;;;;;40.92;23.88;;;;;;;;;;5096358;28;20075;-78
2021/12/26 00:11:54;;;;;;;37.88;24.02;;;;;;;;;;5096035;28;20107;-79
2021/12/26 00:14:21;;;;;;;39.58;22.77;;;;;;;;;;5096388;28;20024;-79
2021/12/26 00:16:47;;;;;;;36.75;20.85;;;;;;;;;;5095449;28;20020;-79
2021/12/26 00:19:13;;;;;;;33.88;18.95;;;;;;;;;;5095638;28;20024;-80
2021/12/26 00:21:39;;;;;;;37.42;18.42;;;;;;;;;;5096355;28;20024;-79
2021/12/26 00:24:06;;;;;;;32.90;17.67;;;;;;;;;;5095760;28;20036;-79
2021/12/26 00:26:32;;;;;;;30.23;16.40;;;;;;;;;;5095515;28;20476;-79
2021/12/26 00:28:59;;;;;;;28.88;17.75;;;;;;;;;;5095848;28;20110;-79
2021/12/26 00:31:26;;;;;;;31.58;18.58;;;;;;;;;;5095683;28;20020;-79
2021/12/26 00:33:52;;;;;;;32.92;18.67;;;;;;;;;;5095377;28;20020;-79
2021/12/26 00:36:18;;;;;;;38.92;19.20;;;;;;;;;;5095657;28;20392;-79
2021/12/26 00:38:45;;;;;;;33.90;19.70;;;;;;;;;;5095930;28;20024;-81
2021/12/26 00:41:11;;;;;;;35.10;19.17;;;;;;;;;;5095305;28;20496;-81
2021/12/26 00:43:37;;;;;;;38.75;20.23;;;;;;;;;;5095587;28;20052;-81
2021/12/26 00:46:04;;;;;;;42.53;21.27;;;;;;;;;;5095877;28;20081;-81
2021/12/26 00:48:30;;;;;;;36.22;19.25;;;;;;;;;;5095137;28;20020;-79
2021/12/26 00:50:57;;;;;;;71.47;30.73;;;;;;;;;;5095519;28;20032;-81
2021/12/26 00:53:23;;;;;;;49.13;24.10;;;;;;;;;;5095540;28;20074;-80
2021/12/26 00:55:50;;;;;;;48.15;22.92;;;;;;;;;;5094890;28;20030;-80
2021/12/26 00:58:16;;;;;;;38.75;19.80;;;;;;;;;;5095259;28;20058;-79
2021/12/26 01:00:44;;;;;;;43.63;21.83;;;;;;;;;;5094871;28;20024;-81
2021/12/26 01:03:11;;;;;;;36.67;19.70;;;;;;;;;;5095063;28;20028;-79
2021/12/26 01:05:38;;;;;;;37.67;19.92;;;;;;;;;;5095008;28;20024;-78
2021/12/26 01:08:08;;;;;;;40.25;20.27;;;;;;;;;;5094510;28;20024;-78
2021/12/26 01:10:37;;;;;;;38.70;21.25;;;;;;;;;;5094896;28;20024;-77
2021/12/26 01:13:17;;;;;;;41.92;22.45;;;;;;;;;;5095449;28;20024;-78
2021/12/26 01:15:44;;;;;;;41.70;21.70;;;;;;;;;;5094338;28;20024;-79
2021/12/26 01:18:11;;;;;;;47.72;25.15;;;;;;;;;;5094721;28;20066;-78
2021/12/26 01:20:43;;;;;;;38.88;22.52;;;;;;;;;;5094837;28;20027;-78
2021/12/26 01:23:10;;;;;;;38.08;20.00;;;;;;;;;;5094388;28;20038;-78
2021/12/26 01:25:37;;;;;;;32.30;18.75;;;;;;;;;;5094698;28;20077;-78
2021/12/26 01:28:04;;;;;;;61.10;33.47;;;;;;;;;;5093842;28;20492;-79
2021/12/26 01:30:31;;;;;;;46.72;28.85;;;;;;;;;;5094346;28;20032;-80
2021/12/26 01:32:57;;;;;;;48.90;27.48;;;;;;;;;;5094484;28;20099;-77
2021/12/26 01:35:24;;;;;;;49.03;27.60;;;;;;;;;;5094425;28;20024;-77
2021/12/26 01:37:50;;;;;;;50.03;28.15;;;;;;;;;;5093977;28;20030;-78
2021/12/26 01:40:16;;;;;;;52.05;27.52;;;;;;;;;;5094578;28;20029;-78
2021/12/26 01:42:42;;;;;;;50.95;28.02;;;;;;;;;;5094142;28;20047;-77
2021/12/26 01:45:11;;;;;;;38.53;26.15;;;;;;;;;;5093834;28;20032;-78
2021/12/26 01:47:37;;;;;;;40.20;23.52;;;;;;;;;;5094304;28;20027;-78
2021/12/26 01:50:04;;;;;;;43.08;25.30;;;;;;;;;;5093762;28;20020;-78
2021/12/26 01:52:30;;;;;;;36.33;21.35;;;;;;;;;;5094381;28;20425;-77
2021/12/26 01:55:12;;;;;;;34.55;19.02;;;;;;;;;;5094075;28;20035;-77
2021/12/26 01:57:38;;;;;;;48.28;25.95;;;;;;;;;;5093752;28;20480;-78
2021/12/26 02:00:05;;;;;;;57.95;31.33;;;;;;;;;;5094111;28;20021;-78
2021/12/26 02:02:31;;;;;;;52.30;29.23;;;;;;;;;;5094113;28;20032;-79
2021/12/26 02:04:58;;;;;;;60.65;30.75;;;;;;;;;;5092198;28;20392;-79
2021/12/26 02:07:24;;;;;;;43.35;24.13;;;;;;;;;;5093888;28;20050;-78
2021/12/26 02:09:50;;;;;;;44.40;23.40;;;;;;;;;;5094146;28;20035;-79
2021/12/26 02:12:16;;;;;;;46.67;25.35;;;;;;;;;;5093553;28;20023;-79
2021/12/26 02:14:42;;;;;;;58.95;30.83;;;;;;;;;;5093729;28;20028;-79
2021/12/26 02:17:09;;;;;;;38.13;23.25;;;;;;;;;;5093806;28;20020;-78
2021/12/26 02:19:35;;;;;;;34.35;18.90;;;;;;;;;;5093370;28;20035;-78
2021/12/26 02:22:15;;;;;;;29.73;16.73;;;;;;;;;;5093649;28;20027;-78
2021/12/26 02:27:33;;;;;;;34.90;19.10;;;;;;;;;;5093268;28;20051;-78
2021/12/26 02:30:29;;;;;;;32.85;18.58;;;;;;;;;;5093855;28;20030;-78
2021/12/26 02:32:59;;;;;;;31.92;17.92;;;;;;;;;;5080124;28;20078;-78
2021/12/26 02:35:25;;;;;;;38.67;21.95;;;;;;;;;;5093395;28;20116;-78
2021/12/26 02:37:52;;;;;;;33.38;19.38;;;;;;;;;;5093824;28;20024;-79
2021/12/26 02:40:18;;;;;;;38.95;19.98;;;;;;;;;;5092914;28;20030;-79
2021/12/26 02:42:45;;;;;;;35.25;20.27;;;;;;;;;;5093138;28;20024;-78
2021/12/26 02:45:11;;;;;;;38.10;19.27;;;;;;;;;;5093443;28;20040;-79
2021/12/26 02:47:42;;;;;;;33.42;17.08;;;;;;;;;;5093175;28;20078;-80
2021/12/26 02:50:12;;;;;;;26.17;15.32;;;;;;;;;;5093483;28;20020;-80
2021/12/26 02:52:38;;;;;;;36.75;19.33;;;;;;;;;;5094306;28;20020;-79
2021/12/26 02:55:05;;;;;;;42.70;23.75;;;;;;;;;;5092854;28;20048;-78
2021/12/26 02:57:31;;;;;;;44.10;21.40;;;;;;;;;;5093169;28;20475;-78
2021/12/26 03:00:00;;;;;;;48.58;24.35;;;;;;;;;;5093229;28;20051;-78
2021/12/26 03:02:26;;;;;;;54.88;26.33;;;;;;;;;;5092713;28;20092;-79
2021/12/26 03:04:53;;;;;;;43.72;23.85;;;;;;;;;;5093549;28;20474;-80
2021/12/26 03:07:19;;;;;;;55.30;31.38;;;;;;;;;;5092619;28;20441;-79
2021/12/26 03:09:47;;;;;;;60.70;33.75;;;;;;;;;;5093124;28;20105;-79
2021/12/26 03:12:14;;;;;;;73.88;40.13;;;;;;;;;;5093326;28;20028;-79
2021/12/26 03:14:40;;;;;;;60.20;35.40;;;;;;;;;;5091374;28;20028;-79
2021/12/26 03:17:07;;;;;;;44.53;25.65;;;;;;;;;;5093124;28;20028;-79
2021/12/26 03:19:34;;;;;;;38.72;24.17;;;;;;;;;;5093141;28;20028;-79
2021/12/26 03:22:00;;;;;;;39.08;23.52;;;;;;;;;;5092702;28;20024;-78
2021/12/26 03:24:26;;;;;;;32.53;20.25;;;;;;;;;;5093031;28;20427;-78
2021/12/26 03:26:59;;;;;;;34.00;19.67;;;;;;;;;;5093180;28;20020;-78
2021/12/26 03:29:26;;;;;;;36.08;19.67;;;;;;;;;;5092619;28;20024;-78
2021/12/26 03:31:52;;;;;;;40.70;22.65;;;;;;;;;;5093020;28;20028;-78
2021/12/26 03:34:18;;;;;;;41.67;22.13;;;;;;;;;;5091653;28;20077;-77
2021/12/26 03:36:46;;;;;;;38.10;22.38;;;;;;;;;;5092548;28;20544;-78
2021/12/26 03:39:12;;;;;;;42.60;22.33;;;;;;;;;;5092872;28;20028;-78
2021/12/26 03:41:38;;;;;;;36.05;22.67;;;;;;;;;;5092836;28;20046;-79
2021/12/26 03:44:04;;;;;;;46.45;28.10;;;;;;;;;;5092284;28;20044;-78
2021/12/26 03:46:31;;;;;;;53.95;30.42;;;;;;;;;;5093001;28;20122;-79
2021/12/26 03:49:01;;;;;;;60.55;33.80;;;;;;;;;;5092859;28;20507;-80
2021/12/26 03:51:27;;;;;;;69.47;36.38;;;;;;;;;;5094276;28;20023;-79
2021/12/26 03:53:53;;;;;;;52.60;27.65;;;;;;;;;;5096483;28;20035;-79
2021/12/26 03:56:19;;;;;;;47.42;27.95;;;;;;;;;;5096618;28;20016;-78
2021/12/26 03:58:46;;;;;;;40.78;23.92;;;;;;;;;;5096051;28;20024;-78
2021/12/26 04:01:12;;;;;;;45.95;26.20;;;;;;;;;;5096736;28;20066;-79
2021/12/26 04:03:38;;;;;;;42.35;24.45;;;;;;;;;;5094924;28;20117;-80
2021/12/26 04:06:05;;;;;;;40.95;24.58;;;;;;;;;;5096735;28;20035;-79
2021/12/26 04:08:31;;;;;;;39.08;19.67;;;;;;;;;;5096346;28;20026;-78
2021/12/26 04:10:57;;;;;;;25.58;16.20;;;;;;;;;;5095996;28;20028;-78
2021/12/26 04:13:23;;;;;;;27.98;15.13;;;;;;;;;;5096512;28;20089;-77
2021/12/26 04:15:50;;;;;;;22.55;12.95;;;;;;;;;;5096067;28;20353;-78
2021/12/26 04:18:16;;;;;;;21.00;13.05;;;;;;;;;;5095474;28;20039;-78
2021/12/26 04:20:42;;;;;;;25.33;14.80;;;;;;;;;;5095982;28;20031;-77
2021/12/26 04:23:09;;;;;;;21.10;13.13;;;;;;;;;;5095936;28;20078;-78
2021/12/26 04:25:35;;;;;;;24.85;13.07;;;;;;;;;;5095903;28;20438;-78
2021/12/26 04:28:01;;;;;;;22.80;13.23;;;;;;;;;;5095813;28;20024;-77
2021/12/26 04:30:28;;;;;;;21.25;12.20;;;;;;;;;;5095854;28;20098;-78
2021/12/26 04:32:54;;;;;;;22.38;12.07;;;;;;;;;;5095273;28;20020;-78
2021/12/26 04:35:20;;;;;;;22.67;13.07;;;;;;;;;;5095723;28;20488;-77
2021/12/26 04:37:47;;;;;;;22.17;12.57;;;;;;;;;;5095711;28;20032;-78
2021/12/26 04:40:14;;;;;;;22.35;13.27;;;;;;;;;;5095214;28;20023;-78
2021/12/26 04:42:43;;;;;;;24.55;13.90;;;;;;;;;;5095459;28;20103;-77
2021/12/26 04:45:10;;;;;;;21.17;12.88;;;;;;;;;;5095426;28;20036;-79
2021/12/26 04:47:37;;;;;;;21.67;13.15;;;;;;;;;;5095151;28;20020;-79
2021/12/26 04:50:05;;;;;;;21.70;12.98;;;;;;;;;;5095755;28;20059;-80
2021/12/26 04:52:31;;;;;;;23.15;14.27;;;;;;;;;;5095940;28;20024;-79
2021/12/26 04:55:00;;;;;;;23.33;13.30;;;;;;;;;;5094875;28;20028;-78
2021/12/26 04:57:27;;;;;;;23.63;13.40;;;;;;;;;;5095600;28;20531;-78
2021/12/26 04:59:54;;;;;;;24.67;13.27;;;;;;;;;;5095239;28;20052;-78
2021/12/26 05:02:20;;;;;;;22.90;13.40;;;;;;;;;;5095136;28;20050;-78
2021/12/26 05:04:46;;;;;;;26.55;13.35;;;;;;;;;;5095040;28;20032;-78
2021/12/26 05:07:12;;;;;;;25.75;14.13;;;;;;;;;;5094680;28;20031;-78
2021/12/26 05:09:39;;;;;;;32.60;17.52;;;;;;;;;;5095079;28;20542;-77
2021/12/26 05:12:05;;;;;;;45.42;23.08;;;;;;;;;;5094941;28;20054;-77
2021/12/26 05:14:31;;;;;;;41.67;25.42;;;;;;;;;;5094531;28;20028;-77
2021/12/26 05:16:57;;;;;;;43.83;24.73;;;;;;;;;;5095465;28;20507;-78
2021/12/26 05:19:24;;;;;;;43.95;24.65;;;;;;;;;;5094804;28;20023;-77
2021/12/26 05:21:50;;;;;;;48.00;25.02;;;;;;;;;;5094389;28;20020;-77
2021/12/26 05:24:16;;;;;;;39.63;21.75;;;;;;;;;;5094645;28;20036;-78
2021/12/26 05:26:42;;;;;;;36.50;22.33;;;;;;;;;;5094633;28;20088;-77
2021/12/26 05:29:08;;;;;;;35.83;21.70;;;;;;;;;;5094534;28;20349;-77
2021/12/26 05:31:35;;;;;;;41.45;22.05;;;;;;;;;;5095436;28;20020;-77
2021/12/26 05:34:01;;;;;;;84.55;44.33;;;;;;;;;;5094545;28;20026;-78
2021/12/26 05:36:27;;;;;;;52.17;29.77;;;;;;;;;;5092851;28;20418;-77
2021/12/26 05:38:54;;;;;;;37.13;21.70;;;;;;;;;;5094774;28;20028;-77
2021/12/26 05:41:20;;;;;;;37.22;19.02;;;;;;;;;;5094303;28;20074;-76
2021/12/26 05:43:46;;;;;;;31.02;17.80;;;;;;;;;;5093693;28;20040;-77
2021/12/26 05:46:13;;;;;;;30.20;17.25;;;;;;;;;;5094318;28;20504;-77
2021/12/26 05:48:39;;;;;;;28.17;15.50;;;;;;;;;;5094291;28;20414;-78
2021/12/26 05:51:05;;;;;;;30.65;18.20;;;;;;;;;;5093806;28;20074;-78
2021/12/26 05:53:31;;;;;;;27.13;16.65;;;;;;;;;;5094265;28;20024;-77
2021/12/26 05:55:57;;;;;;;24.65;14.10;;;;;;;;;;5094447;28;20016;-78
2021/12/26 05:58:24;;;;;;;22.90;12.63;;;;;;;;;;5093644;28;20104;-77
2021/12/26 06:00:50;;;;;;;25.45;13.75;;;;;;;;;;5094135;28;20064;-78
2021/12/26 06:03:16;;;;;;;26.73;14.73;;;;;;;;;;5093727;28;20027;-78
2021/12/26 06:05:42;;;;;;;23.60;15.50;;;;;;;;;;5093840;28;20020;-78
2021/12/26 06:08:08;;;;;;;34.90;16.95;;;;;;;;;;5093933;28;20024;-78
2021/12/26 06:10:36;;;;;;;30.58;17.02;;;;;;;;;;5093714;28;20028;-78
2021/12/26 06:13:02;;;;;;;30.73;17.40;;;;;;;;;;5093741;28;20028;-78
2021/12/26 06:15:29;;;;;;;40.30;22.40;;;;;;;;;;5093358;28;20024;-78
2021/12/26 06:17:55;;;;;;;34.80;19.08;;;;;;;;;;5093382;28;20025;-78
2021/12/26 06:20:21;;;;;;;53.00;27.30;;;;;;;;;;5094031;28;20413;-78
2021/12/26 06:22:47;;;;;;;54.25;30.13;;;;;;;;;;5093997;28;20495;-77
2021/12/26 06:25:14;;;;;;;56.20;29.20;;;;;;;;;;5093155;28;20054;-78
2021/12/26 06:27:40;;;;;;;58.65;34.03;;;;;;;;;;5093741;28;20073;-77
2021/12/26 06:30:07;;;;;;;60.05;36.17;;;;;;;;;;5093747;28;20024;-77
2021/12/26 06:32:34;;;;;;;61.50;34.15;;;;;;;;;;5093383;28;20128;-77
2021/12/26 06:35:01;;;;;;;53.10;31.20;;;;;;;;;;5093551;28;20032;-78
2021/12/26 06:37:28;;;;;;;56.47;32.78;;;;;;;;;;5093497;28;20020;-77
2021/12/26 06:39:54;;;;;;;54.05;28.92;;;;;;;;;;5093173;28;20028;-78
2021/12/26 06:42:21;;;;;;;47.75;28.10;;;;;;;;;;5093430;28;20551;-77
2021/12/26 06:44:47;;;;;;;52.05;30.17;;;;;;;;;;5093164;28;20056;-79
2021/12/26 06:47:13;;;;;;;97.97;49.47;;;;;;;;;;5093300;28;20375;-79
2021/12/26 06:49:41;;;;;;;89.30;48.00;;;;;;;;;;5093798;28;20034;-79
2021/12/26 06:52:08;;;;;;;85.20;49.58;;;;;;;;;;5094433;28;20020;-80
2021/12/26 06:54:36;;;;;;;83.75;48.13;;;;;;;;;;5092887;28;20020;-78
2021/12/26 06:57:03;;;;;;;67.30;36.45;;;;;;;;;;5093305;28;20050;-78
2021/12/26 06:59:29;;;;;;;50.40;30.38;;;;;;;;;;5092871;28;20070;-79
2021/12/26 07:01:56;;;;;;;46.78;25.10;;;;;;;;;;5093570;28;20027;-79
2021/12/26 07:04:22;;;;;;;40.03;22.10;;;;;;;;;;5093180;28;20036;-80
2021/12/26 07:06:48;;;;;;;54.53;29.95;;;;;;;;;;5092805;28;20058;-80
2021/12/26 07:09:14;;;;;;;63.28;37.60;;;;;;;;;;5093212;28;20484;-80
2021/12/26 07:11:41;;;;;;;61.67;33.40;;;;;;;;;;5093479;28;20052;-79
2021/12/26 07:14:08;;;;;;;58.40;31.90;;;;;;;;;;5092817;28;20016;-79
2021/12/26 07:16:34;;;;;;;51.13;28.33;;;;;;;;;;5093237;28;20100;-80
2021/12/26 07:19:01;;;;;;;37.35;23.02;;;;;;;;;;5093177;28;20104;-79
2021/12/26 07:21:27;;;;;;;37.08;22.02;;;;;;;;;;5092691;28;20109;-79
2021/12/26 07:23:53;;;;;;;64.03;33.58;;;;;;;;;;5093549;28;20452;-78
2021/12/26 07:26:19;;;;;;;49.83;31.35;;;;;;;;;;5094442;28;20055;-79
2021/12/26 07:28:45;;;;;;;76.47;45.08;;;;;;;;;;5096607;28;20020;-79
2021/12/26 07:31:12;;;;;;;64.88;40.10;;;;;;;;;;5096926;28;20021;-78
2021/12/26 07:33:39;;;;;;;69.60;39.80;;;;;;;;;;5096803;28;20038;-78
2021/12/26 07:36:06;;;;;;;81.68;42.30;;;;;;;;;;5096594;28;20416;-78
2021/12/26 07:38:32;;;;;;;60.95;36.25;;;;;;;;;;5095453;28;20024;-79
2021/12/26 07:40:58;;;;;;;140.57;74.32;;;;;;;;;;5096827;28;20024;-79
2021/12/26 07:43:24;;;;;;;147.52;77.05;;;;;;;;;;5096141;28;20048;-79
2021/12/26 07:45:51;;;;;;;181.20;97.72;;;;;;;;;;5096798;28;20484;-79
2021/12/26 07:48:17;;;;;;;210.63;109.80;;;;;;;;;;5096740;28;20028;-80
2021/12/26 07:50:43;;;;;;;184.68;99.18;;;;;;;;;;5096172;28;20488;-80
2021/12/26 07:53:11;;;;;;;184.07;106.38;;;;;;;;;;5096741;28;20150;-78
2021/12/26 07:55:39;;;;;;;208.65;114.45;;;;;;;;;;5096318;28;20020;-78
2021/12/26 07:58:06;;;;;;;234.23;124.97;;;;;;;;;;5096518;28;20024;-78
2021/12/26 08:00:32;;;;;;;249.75;136.63;;;;;;;;;;5095118;28;20035;-79
2021/12/26 08:02:59;;;;;;;238.82;129.77;;;;;;;;;;5095953;28;20107;-79
2021/12/26 08:05:25;;;;;;;232.68;128.23;;;;;;;;;;5096221;28;20043;-79
2021/12/26 08:07:51;;;;;;;220.25;124.82;;;;;;;;;;5096231;28;20503;-79
2021/12/26 08:10:18;;;;;;;206.45;118.68;;;;;;;;;;5095785;28;20035;-80
2021/12/26 08:12:44;;;;;;;202.18;111.15;;;;;;;;;;5096249;28;20099;-79
2021/12/26 08:15:10;;;;;;;193.45;111.63;;;;;;;;;;5096394;28;20042;-80
2021/12/26 08:17:38;;;;;;;182.38;94.15;;;;;;;;;;5094420;28;20120;-79
2021/12/26 08:20:05;;;;;;;159.80;86.85;;;;;;;;;;5096594;28;20027;-79
2021/12/26 08:22:31;;;;;;;146.30;88.25;;;;;;;;;;5095929;28;20020;-78
2021/12/26 08:24:58;;;;;;;181.98;107.95;;;;;;;;;;5095391;28;20031;-78
2021/12/26 08:27:24;;;;;;;279.08;156.05;;;;;;;;;;5095960;28;20376;-78
2021/12/26 08:29:50;;;;;;;259.95;147.82;;;;;;;;;;5095771;28;20059;-78
2021/12/26 08:32:18;;;;;;;250.68;135.63;;;;;;;;;;5095355;28;20020;-78
2021/12/26 08:34:44;;;;;;;184.80;111.40;;;;;;;;;;5095696;28;20042;-79
2021/12/26 08:37:11;;;;;;;159.82;91.25;;;;;;;;;;5095687;28;20028;-79
2021/12/26 08:39:39;;;;;;;175.45;104.50;;;;;;;;;;5095277;28;20024;-79
2021/12/26 08:42:06;;;;;;;183.02;103.47;;;;;;;;;;5094299;28;20035;-79
2021/12/26 08:44:33;;;;;;;178.95;106.40;;;;;;;;;;5095284;28;20488;-79
2021/12/26 08:46:59;;;;;;;141.20;83.78;;;;;;;;;;5095394;28;20020;-80
2021/12/26 08:49:25;;;;;;;136.25;79.95;;;;;;;;;;5095521;28;20035;-78
2021/12/26 08:51:52;;;;;;;159.07;94.15;;;;;;;;;;5095503;28;20074;-80
2021/12/26 08:54:18;;;;;;;262.77;150.73;;;;;;;;;;5095481;28;20032;-78
2021/12/26 08:56:44;;;;;;;249.25;139.15;;;;;;;;;;5095349;28;20061;-78
2021/12/26 08:59:10;;;;;;;203.18;116.20;;;;;;;;;;5094897;28;20028;-79
2021/12/26 09:01:37;;;;;;;191.20;109.60;;;;;;;;;;5095292;28;20020;-79
2021/12/26 09:04:04;;;;;;;146.13;87.88;;;;;;;;;;5095192;28;20028;-80
2021/12/26 09:06:30;;;;;;;142.30;81.70;;;;;;;;;;5094857;28;20049;-79
2021/12/26 09:08:56;;;;;;;131.95;76.32;;;;;;;;;;5093678;28;20038;-79
2021/12/26 09:11:22;;;;;;;104.00;63.50;;;;;;;;;;5094964;28;20050;-78
2021/12/26 09:13:49;;;;;;;78.57;48.33;;;;;;;;;;5094941;28;20059;-80
2021/12/26 09:16:15;;;;;;;66.50;41.20;;;;;;;;;;5095084;28;20384;-80
2021/12/26 09:18:41;;;;;;;58.10;34.13;;;;;;;;;;5094842;28;20031;-79
2021/12/26 09:21:07;;;;;;;52.05;32.88;;;;;;;;;;5094579;28;20034;-80
2021/12/26 09:23:34;;;;;;;46.63;29.15;;;;;;;;;;5095083;28;20032;-80
2021/12/26 09:26:00;;;;;;;43.22;28.80;;;;;;;;;;5095576;28;20019;-80
2021/12/26 09:28:28;;;;;;;47.92;28.85;;;;;;;;;;5095046;28;20020;-79
2021/12/26 09:30:54;;;;;;;49.47;28.00;;;;;;;;;;5094945;28;20048;-79
2021/12/26 09:33:20;;;;;;;48.15;29.30;;;;;;;;;;5095023;28;20028;-79
2021/12/26 09:35:47;;;;;;;76.82;40.90;;;;;;;;;;5094581;28;20024;-80
2021/12/26 09:38:14;;;;;;;67.80;37.33;;;;;;;;;;5094585;28;20511;-77
2021/12/26 09:40:40;;;;;;;68.68;36.30;;;;;;;;;;5094393;28;20034;-78
2021/12/26 09:43:06;;;;;;;78.75;44.03;;;;;;;;;;5093790;28;20040;-80
2021/12/26 09:45:32;;;;;;;89.18;51.28;;;;;;;;;;5094812;28;20031;-79
2021/12/26 09:47:58;;;;;;;84.40;55.15;;;;;;;;;;5094179;28;20083;-80
2021/12/26 09:50:25;;;;;;;79.10;48.10;;;;;;;;;;5093359;28;20461;-77
2021/12/26 09:52:53;;;;;;;112.75;71.72;;;;;;;;;;5094164;28;20024;-78
2021/12/26 09:55:20;;;;;;;86.60;56.58;;;;;;;;;;5093707;28;20020;-77
2021/12/26 09:57:46;;;;;;;100.50;65.65;;;;;;;;;;5094131;28;20321;-77
2021/12/26 10:00:23;;;;;;;91.22;58.53;;;;;;;;;;5094253;28;20028;-78
2021/12/26 10:03:08;;;;;;;107.05;72.72;;;;;;;;;;5093882;28;20479;-79
2021/12/26 10:05:53;;;;;;;124.70;78.40;;;;;;;;;;5093924;28;20040;-78
2021/12/26 10:08:19;;;;;;;165.20;103.70;;;;;;;;;;5093875;28;20031;-77
2021/12/26 10:11:03;;;;;;;200.35;120.47;;;;;;;;;;5093465;28;20027;-77
2021/12/26 10:13:39;;;;;;;176.60;108.20;;;;;;;;;;5093932;28;20096;-77
2021/12/26 10:16:05;;;;;;;122.68;76.35;;;;;;;;;;5093854;28;20523;-77
2021/12/26 10:18:32;;;;;;;86.38;52.85;;;;;;;;;;5093394;28;20373;-77
2021/12/26 10:20:58;;;;;;;79.20;49.25;;;;;;;;;;5093787;28;20388;-77
2021/12/26 10:23:28;;;;;;;72.38;44.00;;;;;;;;;;5093365;28;20024;-77
2021/12/26 10:25:54;;;;;;;61.53;38.40;;;;;;;;;;5092330;28;20055;-78
2021/12/26 10:28:20;;;;;;;53.65;30.02;;;;;;;;;;5093597;28;20537;-78
2021/12/26 10:30:47;;;;;;;41.55;27.30;;;;;;;;;;5093367;28;20099;-77
2021/12/26 10:33:13;;;;;;;39.13;25.75;;;;;;;;;;5093514;28;20016;-78
2021/12/26 10:35:39;;;;;;;33.22;20.92;;;;;;;;;;5093917;28;20031;-79
2021/12/26 10:38:14;;;;;;;27.20;17.98;;;;;;;;;;5093058;28;20024;-79
2021/12/26 10:40:41;;;;;;;33.38;17.92;;;;;;;;;;5093569;28;20024;-77
2021/12/26 10:43:10;;;;;;;32.40;18.98;;;;;;;;;;5093360;28;20064;-77
2021/12/26 10:45:36;;;;;;;34.25;19.05;;;;;;;;;;5093027;28;20039;-77
2021/12/26 10:48:06;;;;;;;26.73;15.98;;;;;;;;;;5093401;28;20024;-78
2021/12/26 10:50:34;;;;;;;22.70;14.25;;;;;;;;;;5093240;28;20078;-77
2021/12/26 10:53:05;;;;;;;19.10;12.60;;;;;;;;;;5092933;28;20020;-77
2021/12/26 10:55:41;;;;;;;18.95;11.95;;;;;;;;;;5093285;28;20032;-78
2021/12/26 10:58:12;;;;;;;15.13;9.85;;;;;;;;;;5093608;28;20044;-77
2021/12/26 11:00:39;;;;;;;18.05;10.18;;;;;;;;;;5094738;28;20024;-77
2021/12/26 11:03:10;;;;;;;20.48;10.68;;;;;;;;;;5097443;28;20020;-78
2021/12/26 11:05:38;;;;;;;18.52;10.32;;;;;;;;;;5097248;28;20036;-79
2021/12/26 11:08:11;;;;;;;25.80;13.77;;;;;;;;;;5097485;28;20069;-80
2021/12/26 11:10:39;;;;;;;20.45;11.95;;;;;;;;;;5097452;28;20035;-79
2021/12/26 11:13:06;;;;;;;21.73;12.18;;;;;;;;;;5096873;28;20099;-79
2021/12/26 11:15:34;;;;;;;25.83;16.67;;;;;;;;;;5097305;28;20133;-79
2021/12/26 11:18:02;;;;;;;20.60;11.07;;;;;;;;;;5097124;28;20024;-79
2021/12/26 11:20:31;;;;;;;19.58;13.93;;;;;;;;;;5096796;28;20376;-79
2021/12/26 11:22:57;;;;;;;31.63;19.83;;;;;;;;;;5097230;28;20028;-79
2021/12/26 11:25:24;;;;;;;33.90;20.33;;;;;;;;;;5097320;28;20438;-79
2021/12/26 11:27:50;;;;;;;36.70;23.50;;;;;;;;;;5096714;28;20024;-79
2021/12/26 11:30:17;;;;;;;39.10;23.05;;;;;;;;;;5097023;28;20425;-79
2021/12/26 11:32:44;;;;;;;27.73;18.77;;;;;;;;;;5097570;28;20016;-80
2021/12/26 11:35:10;;;;;;;34.05;20.30;;;;;;;;;;5095258;28;20506;-80
2021/12/26 11:37:38;;;;;;;31.17;21.33;;;;;;;;;;5096933;28;20102;-80
2021/12/26 11:40:05;;;;;;;30.80;19.88;;;;;;;;;;5096717;28;20024;-80
2021/12/26 11:42:48;;;;;;;30.63;21.17;;;;;;;;;;5096341;28;20017;-79
2021/12/26 11:45:14;;;;;;;43.78;27.83;;;;;;;;;;5097008;28;20064;-80
2021/12/26 11:48:11;;;;;;;44.13;28.80;;;;;;;;;;5096881;28;20077;-79
2021/12/26 11:50:57;;;;;;;54.88;33.58;;;;;;;;;;5096937;28;20073;-79
2021/12/26 11:53:32;;;;;;;43.60;28.23;;;;;;;;;;5096708;28;20032;-79
2021/12/26 11:56:13;;;;;;;58.40;30.55;;;;;;;;;;5096116;28;20480;-79
2021/12/26 11:58:50;;;;;;;48.22;28.88;;;;;;;;;;5096556;28;20031;-79
2021/12/26 12:01:19;;;;;;;40.60;25.98;;;;;;;;;;5096714;28;20028;-80
2021/12/26 12:03:46;;;;;;;41.47;29.42;;;;;;;;;;5096163;28;20424;-79
2021/12/26 12:06:25;;;;;;;52.05;31.63;;;;;;;;;;5096992;28;20024;-79
2021/12/26 12:08:52;;;;;;;48.05;31.77;;;;;;;;;;5095814;28;20472;-79
2021/12/26 12:11:18;;;;;;;49.92;32.30;;;;;;;;;;5095846;28;20028;-79
2021/12/26 12:13:46;;;;;;;49.25;33.15;;;;;;;;;;5095840;28;20035;-79
2021/12/26 12:16:13;;;;;;;45.22;30.98;;;;;;;;;;5095777;28;20126;-80
2021/12/26 12:18:40;;;;;;;40.47;26.85;;;;;;;;;;5096083;28;20028;-79
2021/12/26 12:21:11;;;;;;;36.13;22.55;;;;;;;;;;5096083;28;20023;-80
2021/12/26 12:23:40;;;;;;;51.80;34.97;;;;;;;;;;5095600;28;20509;-79
2021/12/26 12:26:06;;;;;;;49.63;34.08;;;;;;;;;;5096049;28;20035;-79
2021/12/26 12:28:42;;;;;;;52.45;33.25;;;;;;;;;;5095865;28;20490;-79
2021/12/26 12:31:08;;;;;;;39.08;25.67;;;;;;;;;;5095494;28;20059;-79
2021/12/26 12:33:35;;;;;;;41.58;28.88;;;;;;;;;;5095837;28;20088;-80
2021/12/26 12:36:12;;;;;;;60.72;38.25;;;;;;;;;;5096091;28;20107;-80
2021/12/26 12:38:40;;;;;;;47.38;32.10;;;;;;;;;;5095275;28;20020;-80
2021/12/26 12:41:27;;;;;;;46.05;27.23;;;;;;;;;;5095655;28;20020;-80
2021/12/26 12:43:53;;;;;;;40.80;25.83;;;;;;;;;;5084688;28;20109;-79
2021/12/26 12:46:20;;;;;;;43.83;31.17;;;;;;;;;;5095174;28;20031;-79
2021/12/26 12:49:06;;;;;;;45.00;27.48;;;;;;;;;;5095980;28;20024;-81
2021/12/26 12:51:34;;;;;;;39.50;25.15;;;;;;;;;;5095063;28;20020;-79
2021/12/26 12:54:01;;;;;;;44.58;27.55;;;;;;;;;;5095679;28;20023;-79
2021/12/26 12:56:32;;;;;;;35.92;24.95;;;;;;;;;;5095286;28;20051;-78
2021/12/26 12:59:16;;;;;;;39.80;22.85;;;;;;;;;;5094961;28;20017;-79
2021/12/26 13:01:47;;;;;;;39.30;24.52;;;;;;;;;;5095362;28;20024;-80
2021/12/26 13:04:15;;;;;;;43.75;30.08;;;;;;;;;;5095272;28;20106;-81
2021/12/26 13:06:51;;;;;;;55.53;36.72;;;;;;;;;;5094762;28;20115;-80
2021/12/26 13:09:18;;;;;;;46.50;32.53;;;;;;;;;;5095148;28;20032;-80
2021/12/26 13:11:44;;;;;;;55.28;35.28;;;;;;;;;;5095063;28;20095;-79
2021/12/26 13:14:11;;;;;;;47.60;29.67;;;;;;;;;;5094551;28;20038;-80
2021/12/26 13:16:37;;;;;;;48.75;30.60;;;;;;;;;;5094840;28;20077;-79
2021/12/26 13:19:07;;;;;;;71.65;47.22;;;;;;;;;;5095075;28;20052;-79
2021/12/26 13:21:33;;;;;;;54.38;35.22;;;;;;;;;;5094692;28;20027;-79
2021/12/26 13:24:00;;;;;;;84.32;49.95;;;;;;;;;;5093655;28;20122;-79
2021/12/26 13:26:26;;;;;;;79.30;48.25;;;;;;;;;;5094680;28;20059;-79
2021/12/26 13:28:52;;;;;;;69.97;42.92;;;;;;;;;;5094813;28;20021;-79
2021/12/26 13:31:23;;;;;;;67.88;40.70;;;;;;;;;;5094807;28;20024;-79
2021/12/26 13:33:53;;;;;;;72.85;46.75;;;;;;;;;;5094484;28;20055;-79
2021/12/26 13:36:20;;;;;;;70.68;45.97;;;;;;;;;;5095195;28;20073;-78
2021/12/26 13:38:47;;;;;;;69.20;44.45;;;;;;;;;;5094509;28;20400;-81
2021/12/26 13:41:15;;;;;;;88.05;57.17;;;;;;;;;;5093955;28;20020;-80
2021/12/26 13:43:43;;;;;;;80.18;53.22;;;;;;;;;;5094374;28;20430;-79
2021/12/26 13:46:10;;;;;;;60.42;36.08;;;;;;;;;;5094920;28;20039;-80
2021/12/26 13:48:38;;;;;;;38.15;24.92;;;;;;;;;;5093926;28;20020;-80
2021/12/26 13:51:19;;;;;;;28.05;18.48;;;;;;;;;;5094156;28;20035;-80
2021/12/26 13:53:46;;;;;;;48.30;28.92;;;;;;;;;;5094168;28;20069;-79
2021/12/26 13:56:12;;;;;;;32.30;16.33;;;;;;;;;;5094043;28;20354;-77
2021/12/26 13:58:40;;;;;;;30.25;18.90;;;;;;;;;;5094193;28;20023;-78
2021/12/26 14:01:06;;;;;;;24.05;14.23;;;;;;;;;;5095125;28;20078;-79
2021/12/26 14:03:33;;;;;;;24.40;14.02;;;;;;;;;;5094300;28;20020;-79
2021/12/26 14:05:59;;;;;;;30.73;18.50;;;;;;;;;;5095839;28;20027;-80
2021/12/26 14:08:27;;;;;;;43.13;22.73;;;;;;;;;;5094863;28;20476;-80
2021/12/26 14:10:56;;;;;;;28.60;16.88;;;;;;;;;;5092572;28;20024;-79
2021/12/26 14:13:23;;;;;;;27.23;16.73;;;;;;;;;;5094179;28;20472;-80
2021/12/26 14:15:55;;;;;;;34.78;18.90;;;;;;;;;;5093312;28;20024;-80
2021/12/26 14:18:25;;;;;;;34.72;21.98;;;;;;;;;;5092962;28;20408;-80
2021/12/26 14:20:54;;;;;;;31.75;21.77;;;;;;;;;;5094116;28;20065;-79